Airfield :
LOGIN :

Register | Disclaimer

   EN    FR    IT 

 










Legend :    VFR   Marginal VFR   IFR   Intensive IFR   Very Intensive IFR
Visi :
Ceiling :
>= 8 km
>= 3000ft
5 to 8 km
1000 to 3000 ft
1500m to 5 km
500 to 1000 ft
800 to 1500m
200 to 500 ft
< 800m
< 200 ft
Symbols :   Thunderstorms  Fog  Heavy snow  Heavy precipitations  Wind > 20 kt
SIGMETs :     Misc.  Thunderstorms  Icing  Turbulence  Mountain Waves  Volcanic Ashes






- Airport Elevation : 36 ft
- IATA code : LTQ


LFAT - Le Touquet

CURRENT METAR :
  • 251630Z AUTO 13005KT 7000 BKN038 BKN046 BKN052 10/10 Q1015 TEMPO RA

EXPIRED METARs :
  • 251600Z AUTO 12006KT 8000 BKN042 BKN052 OVC084 10/09 Q1015 NOSIG
  • 251530Z AUTO 13004KT 090V150 9000 -RA BKN038 BKN049 OVC056 11/10 Q1015 NOSIG
  • 251500Z AUTO 12005KT 060V140 9999 BKN035 OVC041 11/10 Q1015 NOSIG
  • 251430Z AUTO 13004KT 9999 SCT035 BKN041 BKN050 11/10 Q1015 NOSIG
  • 251400Z AUTO 14004KT 9999 OVC043 11/09 Q1014 TEMPO BKN008

TAF AMD TAF LFAT
Valid from the 25 at 16:00 until the 26 at 00:00 UTC


251601Z 2516/2524 15006KT 9999 SCT013 BKN040
TEMPO 2516/2521 RA
ATIS : +33 3 21 06 62 84



MET'MAP, your aeronautical weather chart ! - Copyright ORBIFLY December 2007 - Disclaimer

ORBIFLY MET'MAP TEAM :

Programming & Development : Alexandra Zaïnal
Concept & original design : Baudouin d'Aumeries
Assistance for programming : Marc-Olivier Méhu
Technical & hardware support : Manuel Goepfert

Contact : metmap@orbifly.com




SOURCES & CREDITS :

   NOAA